createdAt,value
2022-11-16T00:02:05.853Z,94.28
2022-11-16T00:04:32.268Z,95.30
2022-11-16T00:06:58.677Z,96.65
2022-11-16T00:09:28.025Z,98.75
2022-11-16T00:11:57.478Z,98.43
2022-11-16T00:14:27.113Z,97.43
2022-11-16T00:16:53.932Z,96.90
2022-11-16T00:19:20.614Z,97.28
2022-11-16T00:21:47.209Z,97.34
2022-11-16T00:24:16.814Z,97.01
2022-11-16T00:26:43.861Z,97.13
2022-11-16T00:29:15.211Z,97.38
2022-11-16T00:31:43.337Z,96.87
2022-11-16T00:34:09.972Z,96.77
2022-11-16T00:36:36.356Z,96.98
2022-11-16T00:39:03.497Z,97.09
2022-11-16T00:41:29.949Z,97.24
2022-11-16T00:43:56.469Z,97.15
2022-11-16T00:46:23.265Z,96.82
2022-11-16T00:48:49.708Z,96.73
2022-11-16T00:51:16.141Z,96.28
2022-11-16T00:53:42.519Z,96.19
2022-11-16T00:56:08.967Z,95.73
2022-11-16T00:58:41.192Z,95.47
2022-11-16T01:01:10.756Z,95.58
2022-11-16T01:03:38.164Z,95.77
2022-11-16T01:06:07.964Z,95.69
2022-11-16T01:08:37.202Z,95.73
2022-11-16T01:11:16.836Z,95.57
2022-11-16T01:13:43.847Z,95.71
2022-11-16T01:16:14.731Z,96.64
2022-11-16T01:18:43.000Z,96.48
2022-11-16T01:21:09.972Z,96.12
2022-11-16T01:23:36.523Z,95.84
2022-11-16T01:26:03.396Z,95.78
2022-11-16T01:28:33.545Z,95.77
2022-11-16T01:31:00.654Z,95.60
2022-11-16T01:33:28.664Z,95.26
2022-11-16T01:35:55.394Z,95.16
2022-11-16T01:38:27.227Z,95.00
2022-11-16T01:40:56.405Z,95.28
2022-11-16T01:43:26.435Z,95.46
2022-11-16T01:45:58.508Z,95.40
2022-11-16T01:48:32.035Z,95.06
2022-11-16T01:50:59.078Z,95.12
2022-11-16T01:53:27.430Z,95.54
2022-11-16T01:55:56.073Z,95.65
2022-11-16T01:58:27.722Z,95.45
2022-11-16T02:00:59.801Z,95.33
2022-11-16T02:03:30.284Z,95.16
2022-11-16T02:06:30.788Z,95.18
2022-11-16T02:09:50.614Z,94.78
2022-11-16T02:12:40.833Z,93.93
2022-11-16T02:15:29.891Z,93.73
2022-11-16T02:18:29.455Z,94.12
2022-11-16T02:21:17.095Z,93.64
2022-11-16T02:24:11.995Z,93.54
2022-11-16T02:27:04.069Z,94.64
2022-11-16T02:29:45.554Z,94.70
2022-11-16T02:32:24.205Z,94.50
2022-11-16T02:35:12.247Z,94.43
2022-11-16T02:37:45.403Z,94.91
2022-11-16T02:40:15.024Z,94.68
2022-11-16T02:42:48.105Z,94.66
2022-11-16T02:45:21.593Z,94.67
2022-11-16T02:47:51.212Z,94.69
2022-11-16T02:50:20.815Z,94.50
2022-11-16T02:52:47.251Z,96.21
2022-11-16T02:55:14.461Z,97.29
2022-11-16T02:57:56.708Z,97.91
2022-11-16T03:00:27.305Z,96.92
2022-11-16T03:03:15.831Z,96.50
2022-11-16T03:05:51.981Z,96.35
2022-11-16T03:08:26.449Z,96.21
2022-11-16T03:11:14.496Z,96.16
2022-11-16T03:13:42.511Z,95.99
2022-11-16T03:16:18.716Z,95.93
2022-11-16T03:18:48.935Z,95.50
2022-11-16T03:21:28.205Z,94.93
2022-11-16T03:23:54.966Z,94.77
2022-11-16T03:26:25.904Z,94.26
2022-11-16T03:29:12.646Z,94.27
2022-11-16T03:31:48.252Z,94.03
2022-11-16T03:34:19.605Z,94.21
2022-11-16T03:36:49.519Z,94.77
2022-11-16T03:39:22.654Z,95.85
2022-11-16T03:41:50.028Z,95.40
2022-11-16T03:44:19.261Z,95.42
2022-11-16T03:46:46.899Z,95.31
2022-11-16T03:49:13.698Z,95.04
2022-11-16T03:51:40.402Z,94.97
2022-11-16T03:54:07.040Z,94.75
2022-11-16T03:56:34.185Z,94.56
2022-11-16T03:59:02.116Z,94.59
2022-11-16T04:01:28.981Z,94.45
2022-11-16T04:03:55.542Z,94.32
2022-11-16T04:06:39.485Z,94.27
2022-11-16T04:09:13.255Z,94.40
2022-11-16T04:11:50.087Z,94.14
2022-11-16T04:14:30.346Z,94.20
2022-11-16T04:17:10.667Z,94.05
2022-11-16T04:19:56.744Z,93.86
2022-11-16T04:22:41.020Z,94.06
2022-11-16T04:25:15.390Z,94.12
2022-11-16T04:28:01.314Z,94.05
2022-11-16T04:30:47.813Z,94.16
2022-11-16T04:33:31.646Z,93.95
2022-11-16T04:36:15.371Z,93.90
2022-11-16T04:38:44.420Z,93.91
2022-11-16T04:41:30.796Z,93.85
2022-11-16T04:43:57.918Z,93.86
2022-11-16T04:46:42.409Z,93.65
2022-11-16T04:49:09.344Z,93.75
2022-11-16T04:51:35.842Z,93.77
2022-11-16T04:54:02.362Z,93.53
2022-11-16T04:56:31.845Z,93.67
2022-11-16T04:58:58.808Z,93.57
2022-11-16T05:01:43.713Z,93.94
2022-11-16T05:04:10.460Z,94.71
2022-11-16T05:06:37.165Z,94.73
2022-11-16T05:09:03.992Z,94.53
2022-11-16T05:11:30.661Z,94.63
2022-11-16T05:13:58.078Z,94.52
2022-11-16T05:16:24.776Z,94.07
2022-11-16T05:19:04.409Z,94.16
2022-11-16T05:21:37.846Z,94.11
2022-11-16T05:24:25.382Z,94.17
2022-11-16T05:26:52.212Z,94.21
2022-11-16T05:29:18.635Z,94.18
2022-11-16T05:31:45.299Z,94.34
2022-11-16T05:34:13.303Z,94.51
2022-11-16T05:36:40.352Z,94.51
2022-11-16T05:39:06.885Z,94.84
2022-11-16T05:41:35.177Z,97.01
2022-11-16T05:44:03.257Z,97.37
2022-11-16T05:46:29.684Z,96.85
2022-11-16T05:48:57.231Z,97.23
2022-11-16T05:51:24.150Z,96.51
2022-11-16T05:53:51.305Z,96.38
2022-11-16T05:56:20.845Z,96.34
2022-11-16T05:58:47.916Z,96.18
2022-11-16T06:01:14.711Z,95.89
2022-11-16T06:03:41.394Z,95.60
2022-11-16T06:06:08.657Z,95.52
2022-11-16T06:08:36.231Z,95.63
2022-11-16T06:11:09.196Z,95.12
2022-11-16T06:13:36.433Z,95.24
2022-11-16T06:16:04.428Z,95.33
2022-11-16T06:18:31.570Z,95.34
2022-11-16T06:20:58.456Z,94.95
2022-11-16T06:23:25.439Z,94.79
2022-11-16T06:25:59.818Z,94.80
2022-11-16T06:28:27.477Z,94.13
2022-11-16T06:30:59.119Z,94.05
2022-11-16T06:33:30.905Z,93.70
2022-11-16T06:36:00.681Z,93.63
2022-11-16T06:38:27.598Z,93.63
2022-11-16T06:40:58.475Z,93.94
2022-11-16T06:43:26.788Z,94.16
2022-11-16T06:45:57.754Z,94.64
2022-11-16T06:48:24.701Z,94.22
2022-11-16T06:50:53.986Z,94.21
2022-11-16T06:53:28.945Z,94.11
2022-11-16T06:56:11.556Z,94.05
2022-11-16T06:58:43.042Z,93.69
2022-11-16T07:01:11.384Z,93.63
2022-11-16T07:03:41.650Z,93.73
2022-11-16T07:06:21.410Z,93.46
2022-11-16T07:09:11.189Z,93.75
2022-11-16T07:11:40.345Z,93.74
2022-11-16T07:14:07.144Z,94.04
2022-11-16T07:16:35.639Z,94.07
2022-11-16T07:19:03.173Z,93.98
2022-11-16T07:21:31.232Z,94.13
2022-11-16T07:24:05.234Z,94.30
2022-11-16T07:26:36.947Z,93.71
2022-11-16T07:29:08.818Z,93.71
2022-11-16T07:31:47.038Z,93.44
2022-11-16T07:35:17.375Z,93.60
2022-11-16T07:38:16.774Z,93.71
2022-11-16T07:41:07.097Z,93.71
2022-11-16T07:44:12.229Z,93.66
2022-11-16T07:47:17.790Z,93.12
2022-11-16T07:49:55.908Z,93.20
2022-11-16T07:52:50.011Z,93.17
2022-11-16T07:55:49.013Z,93.53
2022-11-16T07:59:30.229Z,93.70
2022-11-16T08:38:20.903Z,93.40
2022-11-16T08:41:00.989Z,93.13
2022-11-16T08:43:40.783Z,92.68
2022-11-16T08:46:17.722Z,92.41
2022-11-16T08:48:47.782Z,90.14
2022-11-16T08:51:20.860Z,88.17
2022-11-16T08:53:56.566Z,88.90
2022-11-16T08:56:26.780Z,87.62
2022-11-16T08:58:58.374Z,87.63
2022-11-16T09:01:54.216Z,88.39
2022-11-16T09:05:25.492Z,87.35
2022-11-16T09:08:33.985Z,88.14
2022-11-16T09:11:10.050Z,88.01
2022-11-16T09:14:10.008Z,88.18
2022-11-16T09:17:49.018Z,88.37
2022-11-16T09:20:23.402Z,87.98
2022-11-16T09:23:14.998Z,86.63
2022-11-16T09:26:37.717Z,86.18
2022-11-16T09:50:07.187Z,86.80
2022-11-16T09:51:02.537Z,87.61
2022-11-16T09:53:40.155Z,87.85
2022-11-16T09:56:26.583Z,88.60
2022-11-16T09:59:11.105Z,89.29
2022-11-16T10:01:54.696Z,89.13
2022-11-16T10:04:58.539Z,88.50
2022-11-16T10:08:38.403Z,88.82
2022-11-16T10:12:01.031Z,88.19
2022-11-16T10:14:51.342Z,88.30
2022-11-16T10:17:37.628Z,87.03
2022-11-16T10:20:33.265Z,85.24
2022-11-16T10:23:18.326Z,85.81
2022-11-16T10:25:48.757Z,86.33
2022-11-16T10:28:46.469Z,86.60
2022-11-16T10:31:19.023Z,86.38
2022-11-16T10:33:49.278Z,85.89
2022-11-16T10:36:17.378Z,85.76
2022-11-16T10:38:47.117Z,86.17
2022-11-16T10:41:39.091Z,85.52
2022-11-16T10:44:18.886Z,85.94
2022-11-16T10:47:04.102Z,85.24
2022-11-16T10:49:39.578Z,84.95
2022-11-16T10:52:15.615Z,85.36
2022-11-16T10:54:49.818Z,85.61
2022-11-16T10:57:29.432Z,85.21
2022-11-16T11:00:03.154Z,85.16
2022-11-16T11:02:34.758Z,85.09
2022-11-16T11:05:24.637Z,85.24
2022-11-16T11:08:16.186Z,84.82
2022-11-16T11:10:42.838Z,84.52
2022-11-16T11:13:29.554Z,84.97
2022-11-16T11:16:16.752Z,84.93
2022-11-16T11:19:17.668Z,85.74
2022-11-16T11:21:46.470Z,85.70
2022-11-16T11:24:43.286Z,86.00
2022-11-16T11:27:04.930Z,86.13
2022-11-16T11:29:36.877Z,86.17
2022-11-16T11:32:06.596Z,86.08
2022-11-16T11:34:47.989Z,86.14
2022-11-16T11:37:19.139Z,86.08
2022-11-16T11:39:45.902Z,85.19
2022-11-16T11:42:22.586Z,85.88
2022-11-16T11:45:52.752Z,86.24
2022-11-16T11:48:31.066Z,86.93
2022-11-16T11:51:09.316Z,86.73
2022-11-16T11:53:52.670Z,87.05
2022-11-16T11:56:20.279Z,87.11
2022-11-16T12:10:07.800Z,87.50
2022-11-16T12:20:02.376Z,87.97
2022-11-16T12:52:31.035Z,86.32
2022-11-16T12:56:26.463Z,85.23
2022-11-16T13:00:08.988Z,86.03
2022-11-16T13:03:20.175Z,86.87
2022-11-16T13:06:45.033Z,87.09
2022-11-16T13:12:32.968Z,88.40
2022-11-16T13:13:03.930Z,87.37
2022-11-16T13:15:03.289Z,88.43
2022-11-16T13:18:21.231Z,88.10
2022-11-16T13:22:19.677Z,88.16
2022-11-16T13:28:42.911Z,88.07
2022-11-16T13:31:41.701Z,89.26
2022-11-16T13:34:35.197Z,89.11
2022-11-16T13:38:22.084Z,89.05
2022-11-16T13:41:18.727Z,89.76
2022-11-16T13:48:41.753Z,90.65
2022-11-16T13:51:32.586Z,90.32
2022-11-16T13:54:47.426Z,90.10
2022-11-16T13:57:35.365Z,89.80
2022-11-16T14:00:35.684Z,90.08
2022-11-16T14:03:31.082Z,90.11
2022-11-16T14:06:14.019Z,89.88
2022-11-16T14:09:36.023Z,89.74
2022-11-16T14:12:43.789Z,89.54
2022-11-16T14:15:34.126Z,89.42
2022-11-16T14:21:58.198Z,89.92
2022-11-16T14:24:39.062Z,89.60
2022-11-16T14:27:38.007Z,90.49
2022-11-16T14:30:55.278Z,91.28
2022-11-16T14:34:50.793Z,90.73
2022-11-16T14:37:32.446Z,91.11
2022-11-16T14:40:20.638Z,91.09
2022-11-16T14:45:54.252Z,93.26
2022-11-16T14:48:43.907Z,93.30
2022-11-16T14:51:27.041Z,93.96
2022-11-16T14:54:01.511Z,94.01
2022-11-16T14:56:37.415Z,93.64
2022-11-16T14:59:07.965Z,93.39
2022-11-16T15:01:41.855Z,94.02
2022-11-16T15:04:17.584Z,93.85
2022-11-16T15:06:58.720Z,93.40
2022-11-16T15:09:34.771Z,93.60
2022-11-16T15:12:26.891Z,93.69
2022-11-16T15:15:02.236Z,93.36
2022-11-16T15:17:36.535Z,93.14
2022-11-16T15:20:26.671Z,92.94
2022-11-16T15:22:57.401Z,92.97
2022-11-16T15:25:32.021Z,92.91
2022-11-16T15:28:04.561Z,92.25
2022-11-16T15:30:39.352Z,92.67
2022-11-16T15:33:20.885Z,93.09
2022-11-16T15:35:55.412Z,93.56
2022-11-16T15:38:26.716Z,93.83
2022-11-16T15:40:56.229Z,95.34
2022-11-16T15:43:27.045Z,95.99
2022-11-16T15:45:54.465Z,96.15
2022-11-16T15:48:23.725Z,96.40
2022-11-16T15:51:07.154Z,96.52
2022-11-16T15:53:39.644Z,96.30
2022-11-16T15:56:30.554Z,95.55
2022-11-16T15:59:01.308Z,95.03
2022-11-16T16:01:29.759Z,94.99
2022-11-16T16:04:04.595Z,94.83
2022-11-16T16:06:53.280Z,94.41
2022-11-16T16:09:28.366Z,94.48
2022-11-16T16:12:16.910Z,94.51
2022-11-16T16:14:44.674Z,94.20
2022-11-16T16:17:21.372Z,94.33
2022-11-16T16:19:58.652Z,94.16
2022-11-16T16:22:32.072Z,93.74
2022-11-16T16:25:00.788Z,94.22
2022-11-16T16:27:29.137Z,95.08
2022-11-16T16:29:58.333Z,95.51
2022-11-16T16:32:30.012Z,95.23
2022-11-16T16:34:58.496Z,95.48
2022-11-16T16:37:26.645Z,95.36
2022-11-16T16:39:53.085Z,95.67
2022-11-16T16:42:19.887Z,95.82
2022-11-16T16:44:47.995Z,96.24
2022-11-16T16:47:16.291Z,95.59
2022-11-16T16:49:42.961Z,95.41
2022-11-16T16:52:12.069Z,96.42
2022-11-16T16:54:40.021Z,96.88
2022-11-16T16:57:11.308Z,96.02
2022-11-16T16:59:37.846Z,95.80
2022-11-16T17:02:04.599Z,95.58
2022-11-16T17:04:32.151Z,96.41
2022-11-16T17:06:58.650Z,96.14
2022-11-16T17:09:25.131Z,96.56
2022-11-16T17:11:51.585Z,97.02
2022-11-16T17:14:20.720Z,97.06
2022-11-16T17:16:47.229Z,96.76
2022-11-16T17:19:13.647Z,96.93
2022-11-16T17:21:40.119Z,96.66
2022-11-16T17:24:06.762Z,96.36
2022-11-16T17:26:33.352Z,96.10
2022-11-16T17:28:59.907Z,96.46
2022-11-16T17:31:27.630Z,96.11
2022-11-16T17:33:56.684Z,95.79
2022-11-16T17:36:24.349Z,95.80
2022-11-16T17:38:50.856Z,95.55
2022-11-16T17:41:20.993Z,95.38
2022-11-16T17:43:47.488Z,94.87
2022-11-16T17:46:17.603Z,94.71
2022-11-16T17:48:46.577Z,94.72
2022-11-16T17:51:16.325Z,94.73
2022-11-16T17:53:44.486Z,94.57
2022-11-16T17:56:13.765Z,94.57
2022-11-16T17:58:41.259Z,94.45
2022-11-16T18:01:11.207Z,94.11
2022-11-16T18:03:38.744Z,94.60
2022-11-16T18:06:12.703Z,94.75
2022-11-16T18:08:40.329Z,95.58
2022-11-16T18:11:13.554Z,94.97
2022-11-16T18:13:40.319Z,95.19
2022-11-16T18:16:10.730Z,96.44
2022-11-16T18:18:38.000Z,96.98
2022-11-16T18:21:06.033Z,96.02
2022-11-16T18:23:34.366Z,95.83
2022-11-16T18:26:33.734Z,95.52
2022-11-16T18:29:00.423Z,95.49
2022-11-16T18:31:27.387Z,95.17
2022-11-16T18:33:54.124Z,95.05
2022-11-16T18:36:22.216Z,95.02
2022-11-16T18:38:49.971Z,94.99
2022-11-16T18:41:20.127Z,94.52
2022-11-16T18:43:59.607Z,94.48
2022-11-16T18:46:31.959Z,94.62
2022-11-16T18:49:03.441Z,94.25
2022-11-16T18:51:33.491Z,93.92
2022-11-16T18:54:08.949Z,93.75
2022-11-16T18:56:58.784Z,93.74
2022-11-16T18:59:31.296Z,93.66
2022-11-16T19:02:02.531Z,93.69
2022-11-16T19:04:29.389Z,93.92
2022-11-16T19:06:59.035Z,94.02
2022-11-16T19:09:27.966Z,94.21
2022-11-16T19:11:54.387Z,95.01
2022-11-16T19:14:21.018Z,94.49
2022-11-16T19:16:54.028Z,94.61
2022-11-16T19:19:23.491Z,95.05
2022-11-16T19:21:51.190Z,95.70
2022-11-16T19:24:17.749Z,95.80
2022-11-16T19:26:44.299Z,96.09
2022-11-16T19:29:10.879Z,96.98
2022-11-16T19:31:37.369Z,97.87
2022-11-16T19:34:07.140Z,97.25
2022-11-16T19:36:36.288Z,96.59
2022-11-16T19:39:04.632Z,96.40
2022-11-16T19:41:31.544Z,96.53
2022-11-16T19:43:59.671Z,96.26
2022-11-16T19:46:28.848Z,96.06
2022-11-16T19:48:56.185Z,96.05
2022-11-16T19:51:26.068Z,95.94
2022-11-16T19:53:53.076Z,95.83
2022-11-16T19:56:21.433Z,95.38
2022-11-16T19:58:48.778Z,95.17
2022-11-16T20:01:19.883Z,94.86
2022-11-16T20:03:47.882Z,94.30
2022-11-16T20:06:19.395Z,94.63
2022-11-16T20:08:49.441Z,94.74
2022-11-16T20:11:19.983Z,94.79
2022-11-16T20:13:55.003Z,94.97
2022-11-16T20:16:24.056Z,94.95
2022-11-16T20:18:54.366Z,95.02
2022-11-16T20:21:24.487Z,95.19
2022-11-16T20:23:52.697Z,95.41
2022-11-16T20:26:20.825Z,95.25
2022-11-16T20:28:50.467Z,95.08
2022-11-16T20:31:20.895Z,95.36
2022-11-16T20:33:54.390Z,95.12
2022-11-16T20:36:22.462Z,95.08
2022-11-16T20:38:49.417Z,94.87
2022-11-16T20:41:18.544Z,95.35
2022-11-16T20:43:49.252Z,96.31
2022-11-16T20:46:17.314Z,95.99
2022-11-16T20:48:44.268Z,95.77
2022-11-16T20:51:14.072Z,95.73
2022-11-16T20:53:40.620Z,95.56
2022-11-16T20:56:08.930Z,95.45
2022-11-16T20:58:35.556Z,95.44
2022-11-16T21:01:05.683Z,95.54
2022-11-16T21:03:33.396Z,95.68
2022-11-16T21:06:00.742Z,95.55
2022-11-16T21:08:29.177Z,95.03
2022-11-16T21:10:56.165Z,94.94
2022-11-16T21:13:42.291Z,95.06
2022-11-16T21:16:10.912Z,94.99
2022-11-16T21:18:39.143Z,95.19
2022-11-16T21:21:08.240Z,95.27
2022-11-16T21:23:37.441Z,95.10
2022-11-16T21:26:07.224Z,94.94
2022-11-16T21:28:33.800Z,95.12
2022-11-16T21:31:02.939Z,94.88
2022-11-16T21:33:29.918Z,94.92
2022-11-16T21:35:56.458Z,95.04
2022-11-16T21:38:25.484Z,95.10
2022-11-16T21:40:51.990Z,94.80
2022-11-16T21:43:18.495Z,95.00
2022-11-16T21:45:46.727Z,95.28
2022-11-16T21:48:13.544Z,95.40
2022-11-16T21:50:40.526Z,96.47
2022-11-16T21:53:07.464Z,96.09
2022-11-16T21:55:33.998Z,95.78
2022-11-16T21:58:02.857Z,95.78
2022-11-16T22:00:29.731Z,95.97
2022-11-16T22:03:29.841Z,96.25
2022-11-16T22:06:15.547Z,95.88
2022-11-16T22:08:42.748Z,96.00
2022-11-16T22:11:11.581Z,96.18
2022-11-16T22:13:38.374Z,96.03
2022-11-16T22:16:06.969Z,96.32
2022-11-16T22:18:34.285Z,96.52
2022-11-16T22:21:01.692Z,97.26
2022-11-16T22:23:28.953Z,97.91
2022-11-16T22:26:04.440Z,98.78
2022-11-16T22:28:31.985Z,98.15
2022-11-16T22:31:02.055Z,97.86
2022-11-16T22:33:28.921Z,97.66
2022-11-16T22:35:55.688Z,97.78
2022-11-16T22:38:22.417Z,97.54
2022-11-16T22:40:51.202Z,97.30
2022-11-16T22:43:20.523Z,97.29
2022-11-16T22:45:46.983Z,97.19
2022-11-16T22:48:13.734Z,97.32
2022-11-16T22:50:41.338Z,97.08
2022-11-16T22:53:09.431Z,97.43
2022-11-16T22:55:37.622Z,98.11
2022-11-16T22:58:04.838Z,98.52
2022-11-16T23:00:34.213Z,99.21
2022-11-16T23:03:05.786Z,99.09
2022-11-16T23:05:41.875Z,99.20
2022-11-16T23:08:11.374Z,99.92
2022-11-16T23:10:59.362Z,99.98
2022-11-16T23:13:42.787Z,99.97
2022-11-16T23:16:16.189Z,99.68
2022-11-16T23:18:49.194Z,100.00
2022-11-16T23:21:30.242Z,100.00
2022-11-16T23:24:20.628Z,100.00
2022-11-16T23:27:00.630Z,100.00
2022-11-16T23:29:33.329Z,100.00
2022-11-16T23:32:06.822Z,100.00
2022-11-16T23:34:35.855Z,99.99
2022-11-16T23:37:07.484Z,100.00
2022-11-16T23:39:35.489Z,99.87
2022-11-16T23:42:22.899Z,99.47
2022-11-16T23:44:59.840Z,98.99
2022-11-16T23:47:29.790Z,99.02
2022-11-16T23:49:59.019Z,98.95
2022-11-16T23:52:25.618Z,99.03
2022-11-16T23:54:56.996Z,99.25
2022-11-16T23:57:23.818Z,99.38
2022-11-16T23:59:53.282Z,99.55
